createdAt,value
2022-10-01T00:00:29.269Z,3
2022-10-01T00:05:11.479Z,3
2022-10-01T00:09:53.793Z,3
2022-10-01T00:14:36.100Z,3
2022-10-01T00:19:18.310Z,3
2022-10-01T00:23:59.627Z,3
2022-10-01T00:28:41.938Z,3
2022-10-01T00:33:24.246Z,3
2022-10-01T00:38:06.460Z,3
2022-10-01T00:42:48.774Z,3
2022-10-01T00:47:31.086Z,3
2022-10-01T00:52:13.297Z,7
2022-10-01T00:56:55.607Z,7
2022-10-01T01:01:37.921Z,7
2022-10-01T01:06:20.135Z,3
2022-10-01T01:11:02.443Z,7
2022-10-01T01:15:44.756Z,7
2022-10-01T01:20:27.065Z,7
2022-10-01T01:25:08.285Z,3
2022-10-01T01:29:50.591Z,3
2022-10-01T01:34:32.900Z,3
2022-10-01T01:39:15.215Z,3
2022-10-01T01:43:57.422Z,3
2022-10-01T01:48:39.733Z,3
2022-10-01T01:53:22.047Z,3
2022-10-01T01:58:04.256Z,3
2022-10-01T02:02:46.572Z,3
2022-10-01T02:07:28.887Z,3
2022-10-01T02:12:11.097Z,3
2022-10-01T02:16:53.420Z,3
2022-10-01T02:21:35.724Z,3
2022-10-01T02:26:17.086Z,3
2022-10-01T02:30:59.237Z,3
2022-10-01T02:35:41.555Z,3
2022-10-01T02:40:23.864Z,3
2022-10-01T02:45:06.179Z,3
2022-10-01T02:49:48.389Z,3
2022-10-01T02:54:30.702Z,3
2022-10-01T02:59:13.031Z,3
2022-10-01T03:03:55.225Z,3
2022-10-01T03:08:37.540Z,3
2022-10-01T03:13:19.854Z,3
2022-10-01T03:18:02.066Z,3
2022-10-01T03:22:44.376Z,3
2022-10-01T03:27:25.685Z,3
2022-10-01T03:32:07.998Z,7
2022-10-01T03:36:50.227Z,7
2022-10-01T03:41:32.521Z,7
2022-10-01T03:46:14.835Z,7
2022-10-01T03:50:57.046Z,7
2022-10-01T03:55:39.363Z,7
2022-10-01T04:00:21.672Z,7
2022-10-01T04:05:03.884Z,7
2022-10-01T04:09:46.198Z,7
2022-10-01T04:14:28.508Z,7
2022-10-01T04:19:10.819Z,7
2022-10-01T04:23:53.031Z,7
2022-10-01T04:28:34.342Z,7
2022-10-01T04:33:16.662Z,4
2022-10-01T04:37:58.876Z,4
2022-10-01T04:42:41.182Z,4
2022-10-01T04:47:23.488Z,9
2022-10-01T04:52:05.703Z,18
2022-10-01T04:56:48.014Z,24
2022-10-01T05:01:30.324Z,40
2022-10-01T05:06:12.638Z,104
2022-10-01T05:10:54.857Z,169
2022-10-01T05:15:37.167Z,316
2022-10-01T05:20:19.477Z,501
2022-10-01T05:25:01.690Z,722
2022-10-01T05:29:43.000Z,870
2022-10-01T05:34:25.311Z,1011
2022-10-01T05:39:07.621Z,1273
2022-10-01T05:43:49.837Z,1448
2022-10-01T05:48:32.147Z,1717
2022-10-01T05:53:14.459Z,2404
2022-10-01T05:57:56.668Z,2964
2022-10-01T06:02:38.985Z,3405
2022-10-01T06:07:21.298Z,3679
2022-10-01T06:12:03.513Z,4040
2022-10-01T06:16:45.834Z,4451
2022-10-01T06:21:28.138Z,5231
2022-10-01T06:26:10.367Z,5839
2022-10-01T06:30:51.657Z,6312
2022-10-01T06:35:33.977Z,6541
2022-10-01T06:40:16.185Z,6625
2022-10-01T06:44:58.501Z,6827
2022-10-01T06:49:40.806Z,6434
2022-10-01T06:54:23.204Z,5609
2022-10-01T06:59:05.330Z,5504
2022-10-01T07:03:47.643Z,7359
2022-10-01T07:08:29.972Z,10220
2022-10-01T07:13:12.167Z,12715
2022-10-01T07:17:54.489Z,12004
2022-10-01T07:22:36.794Z,10561
2022-10-01T07:27:19.007Z,10348
2022-10-01T07:32:00.341Z,10816
2022-10-01T07:36:42.631Z,9093
2022-10-01T07:41:24.896Z,7604
2022-10-01T07:46:07.155Z,8248
2022-10-01T07:50:49.475Z,9035
2022-10-01T07:55:31.781Z,9092
2022-10-01T08:00:13.991Z,8765
2022-10-01T08:04:56.302Z,8213
2022-10-01T08:09:38.615Z,8113
2022-10-01T08:14:20.841Z,7784
2022-10-01T08:19:02.143Z,7368
2022-10-01T08:23:43.452Z,7225
2022-10-01T08:28:25.765Z,6693
2022-10-01T08:33:07.077Z,6491
2022-10-01T08:37:48.385Z,6205
2022-10-01T08:42:30.596Z,5836
2022-10-01T08:47:12.934Z,5712
2022-10-01T08:51:55.223Z,6676
2022-10-01T08:56:37.430Z,6540
2022-10-01T09:01:19.745Z,7399
2022-10-01T09:06:02.064Z,6754
2022-10-01T09:10:44.270Z,5682
2022-10-01T09:15:26.596Z,5098
2022-10-01T09:20:08.895Z,9084
2022-10-01T09:24:51.108Z,8562
2022-10-01T09:29:33.419Z,8614
2022-10-01T09:34:15.732Z,9856
2022-10-01T09:38:56.951Z,8818
2022-10-01T09:43:39.254Z,7508
2022-10-01T09:48:21.567Z,6348
2022-10-01T09:53:03.779Z,6824
2022-10-01T09:57:46.093Z,6348
2022-10-01T10:02:28.456Z,7757
2022-10-01T10:07:10.701Z,7164
2022-10-01T10:11:52.934Z,7729
2022-10-01T10:16:35.397Z,7788
2022-10-01T10:21:17.593Z,7982
2022-10-01T10:25:59.939Z,7785
2022-10-01T10:30:42.165Z,7750
2022-10-01T10:35:24.405Z,8325
2022-10-01T10:40:05.604Z,8169
2022-10-01T10:44:48.074Z,6765
2022-10-01T10:49:30.375Z,8211
2022-10-01T10:54:12.443Z,8484
2022-10-01T10:58:54.810Z,13162
2022-10-01T11:03:37.112Z,7877
2022-10-01T11:08:19.289Z,13629
2022-10-01T11:13:01.598Z,20144
2022-10-01T11:17:43.908Z,14276
2022-10-01T11:22:26.161Z,13012
2022-10-01T11:27:08.431Z,12745
2022-10-01T11:31:50.744Z,9702
2022-10-01T11:36:33.022Z,9319
2022-10-01T11:41:14.318Z,8727
2022-10-01T11:45:56.578Z,10461
2022-10-01T11:50:38.887Z,9791
2022-10-01T11:55:21.101Z,9696
2022-10-01T12:00:03.416Z,10378
2022-10-01T12:04:45.735Z,9077
2022-10-01T12:09:27.942Z,14707
2022-10-01T12:14:10.250Z,15221
2022-10-01T12:18:52.586Z,20030
2022-10-01T12:23:34.782Z,24264
2022-10-01T12:28:17.085Z,24113
2022-10-01T12:32:59.505Z,15939
2022-10-01T12:37:41.703Z,22760
2022-10-01T12:42:22.919Z,14065
2022-10-01T12:47:05.233Z,16254
2022-10-01T12:51:47.582Z,13877
2022-10-01T12:56:29.757Z,18547
2022-10-01T13:01:12.074Z,14949
2022-10-01T13:05:54.387Z,12609
2022-10-01T13:10:36.619Z,13652
2022-10-01T13:15:18.908Z,8381
2022-10-01T13:20:01.298Z,7020
2022-10-01T13:24:43.432Z,6888
2022-10-01T13:29:25.745Z,7507
2022-10-01T13:34:08.071Z,7696
2022-10-01T13:38:50.384Z,4535
2022-10-01T13:43:31.601Z,4964
2022-10-01T13:48:13.891Z,5408
2022-10-01T13:52:56.101Z,5378
2022-10-01T13:57:38.427Z,3657
2022-10-01T14:02:20.727Z,4049
2022-10-01T14:07:02.041Z,13252
2022-10-01T14:11:44.312Z,6824
2022-10-01T14:16:26.566Z,6368
2022-10-01T14:21:08.880Z,3369
2022-10-01T14:25:51.089Z,5063
2022-10-01T14:30:33.420Z,3447
2022-10-01T14:35:15.711Z,2621
2022-10-01T14:39:57.949Z,3262
2022-10-01T14:44:40.251Z,2305
2022-10-01T14:49:22.551Z,1861
2022-10-01T14:54:04.762Z,2088
2022-10-01T14:58:47.098Z,1709
2022-10-01T15:03:29.435Z,1766
2022-10-01T15:08:10.702Z,1669
2022-10-01T15:12:52.927Z,1196
2022-10-01T15:17:35.227Z,779
2022-10-01T15:22:17.558Z,999
2022-10-01T15:26:59.776Z,1461
2022-10-01T15:31:42.163Z,1571
2022-10-01T15:36:24.373Z,1524
2022-10-01T15:41:06.579Z,1048
2022-10-01T15:45:48.898Z,939
2022-10-01T15:50:31.234Z,1002
2022-10-01T15:55:13.421Z,1219
2022-10-01T15:59:55.765Z,1695
2022-10-01T16:04:38.014Z,1136
2022-10-01T16:09:19.289Z,1366
2022-10-01T16:14:01.601Z,1299
2022-10-01T16:18:43.888Z,908
2022-10-01T16:23:26.127Z,538
2022-10-01T16:28:08.462Z,379
2022-10-01T16:32:50.702Z,214
2022-10-01T16:37:32.962Z,198
2022-10-01T16:42:15.278Z,207
2022-10-01T16:51:39.951Z,207
2022-10-01T16:56:22.113Z,165
2022-10-01T17:01:04.427Z,109
2022-10-01T17:05:46.648Z,63
2022-10-01T17:10:28.011Z,32
2022-10-01T17:15:10.316Z,20
2022-10-01T17:19:52.475Z,9
2022-10-01T17:24:34.805Z,9
2022-10-01T17:29:17.102Z,9
2022-10-01T17:33:59.337Z,4
2022-10-01T17:38:41.671Z,4
2022-10-01T17:43:23.957Z,4
2022-10-01T17:48:06.146Z,4
2022-10-01T17:52:48.459Z,4
2022-10-01T17:57:30.811Z,4
2022-10-01T18:02:12.983Z,4
2022-10-01T18:06:55.299Z,4
2022-10-01T18:11:36.708Z,4
2022-10-01T18:16:18.927Z,4
2022-10-01T18:21:01.288Z,4
2022-10-01T18:25:43.612Z,4
2022-10-01T18:30:25.892Z,9
2022-10-01T18:35:08.127Z,4
2022-10-01T18:39:50.286Z,4
2022-10-01T18:44:32.616Z,4
2022-10-01T18:49:14.811Z,4
2022-10-01T18:53:57.120Z,4
2022-10-01T18:58:39.432Z,4
2022-10-01T19:03:21.651Z,4
2022-10-01T19:08:03.957Z,4
2022-10-01T19:12:45.301Z,4
2022-10-01T19:17:27.568Z,4
2022-10-01T19:22:09.791Z,4
2022-10-01T19:26:52.104Z,4
2022-10-01T19:31:34.317Z,4
2022-10-01T19:36:16.642Z,4
2022-10-01T19:40:58.939Z,4
2022-10-01T19:45:41.153Z,4
2022-10-01T19:50:23.469Z,4
2022-10-01T19:55:05.775Z,4
2022-10-01T19:59:48.088Z,4
2022-10-01T20:04:30.307Z,4
2022-10-01T20:09:12.614Z,4
2022-10-01T20:13:53.928Z,4
2022-10-01T20:18:36.148Z,4
2022-10-01T20:23:18.456Z,4
2022-10-01T20:28:00.779Z,4
2022-10-01T20:32:42.973Z,4
2022-10-01T20:37:25.291Z,4
2022-10-01T20:42:07.597Z,4
2022-10-01T20:46:49.809Z,4
2022-10-01T20:51:32.124Z,4
2022-10-01T20:56:14.433Z,4
2022-10-01T21:00:56.651Z,4
2022-10-01T21:05:38.996Z,4
2022-10-01T21:10:21.271Z,4
2022-10-01T21:15:02.610Z,4
2022-10-01T21:19:44.799Z,4
2022-10-01T21:24:27.109Z,4
2022-10-01T21:29:09.486Z,4
2022-10-01T21:33:51.632Z,4
2022-10-01T21:38:33.945Z,4
2022-10-01T21:43:16.255Z,4
2022-10-01T21:47:58.469Z,4
2022-10-01T21:52:40.784Z,4
2022-10-01T21:57:23.148Z,4
2022-10-01T22:02:05.305Z,4
2022-10-01T22:06:47.623Z,4
2022-10-01T22:11:29.939Z,9
2022-10-01T22:16:11.141Z,4
2022-10-01T22:20:53.455Z,4
2022-10-01T22:25:35.772Z,4
2022-10-01T22:30:18.082Z,4
2022-10-01T22:35:00.291Z,4
2022-10-01T22:39:42.625Z,4
2022-10-01T22:44:24.915Z,4
2022-10-01T22:49:07.126Z,4
2022-10-01T22:53:49.453Z,4
2022-10-01T22:58:31.753Z,4
2022-10-01T23:03:13.966Z,4
2022-10-01T23:07:56.281Z,4
2022-10-01T23:12:38.593Z,4
2022-10-01T23:17:19.808Z,4
2022-10-01T23:22:02.119Z,4
2022-10-01T23:26:44.430Z,4
2022-10-01T23:31:26.651Z,4
2022-10-01T23:36:08.995Z,4
2022-10-01T23:40:51.264Z,4
2022-10-01T23:45:33.478Z,4
2022-10-01T23:50:15.809Z,4
2022-10-01T23:54:58.104Z,4
2022-10-01T23:59:40.314Z,4
